LYBELYNI

Guest
Details From LYBE - Belgrade
To LYNI - NIS
Flight Number -
Tags generated
Created
Modified
Stats Distance 112 nm / 207 km
Max Altitude 8,200 ft / 2,499 m
Waypoints 4
Social Downloads 0
Likes 0
Share VATSIM

Download

Looking for another format? Having issues loading an existing format? Contact us
Advertisement - Login to hide

Notes

Basic altitude profile: - Ascent Rate: 2500ft/min - Ascent Speed: 75kts - Cruise Altitude: 3000ft - Cruise Speed: 120kts - Descent Rate: 400ft/min - Descent Speed: 75kts Options: - Use NATs: yes - Use PACOTS: yes - Use low airways: yes - Use high airways: yes

Route

LYBE BEO N739 GOLIP LYNI

ID Type Via Altitude Latitude Longitude Leg Dist Tot Dist Heading (true) Name
O LYBE APT - 0 ft / 0 m 44.81843˚ 20.30921˚ - 0 nm - Belgrade
BEO VOR - 400 ft / 122 m 44.80703˚ 20.33494˚ 1 nm 1 nm 122° / 122° BEOGRAD VOR-DME
GOLIP FIX N739 (AWY-LO) 8,200 ft / 2,499 m 44.54922˚ 20.69483˚ 21 nm 23 nm 135° / 135° -
O LYNI APT - 0 ft / 0 m 43.33675˚ 21.85542˚ 88 nm 111 nm 145° / 146° NIS

Altitude Profile

Advertisement - Login to hide

LYBE

Details ICAO LYBE (BEG)
Name Belgrade
Region Serbia and Montenegro
Timezone Europe/Belgrade (UTC+1.0)
Stats Elevation 335 ft / 102 m (AMSL)
Location 44.818429° 20.309211°
Runways 1
Magnetic Variation 4.671° E

METAR

LYBE 121230Z 18011KT CAVOK 19/07 Q1011 NOSIG

Decode

TAF

TAF LYBE 121100Z 1212/1312 17008KT CAVOK TX18/1213Z TN05/1312Z BECMG 1304/1306 32010KT BECMG 1309/1311 5000 RA BKN010 BKN027

Decode

Departure Runways

ID Width Length Bearing (true) Bearing (mag) Surface Threshold Offset Overrun Length
12 148 ft / 45 m 11,138 ft / 3,395 m 122.00° 117.33° Asphalt 1,000 ft / 305 m 0 ft / 0 m
30 148 ft / 45 m 11,138 ft / 3,395 m 302.03° 297.36° Asphalt 1,312 ft / 400 m 0 ft / 0 m

LYNI

Details ICAO LYNI (INI)
Name NIS
Region Serbia and Montenegro
Timezone Europe/Belgrade (UTC+1.0)
Stats Elevation 648 ft / 198 m (AMSL)
Location 43.336748° 21.855417°
Runways 1
Magnetic Variation 4.766° E

METAR

LYNI 121230Z 16011G21KT CAVOK 17/05 Q1016 NOSIG

Decode

TAF

TAF LYNI 121100Z 1212/1312 16006KT 9999 SCT040 TX18/1213Z TN05/1305Z TEMPO 1212/1216 16016KT

Decode

Destination Runways

ID Width Length Bearing (true) Bearing (mag) Surface Threshold Offset Overrun Length
11 148 ft / 45 m 8,187 ft / 2,495 m 113.61° 108.84° Asphalt 719 ft / 219 m 0 ft / 0 m
29 148 ft / 45 m 8,187 ft / 2,495 m 293.63° 288.86° Asphalt 985 ft / 300 m 0 ft / 0 m

Popular Alternatives